createdAt,value
2019-04-05T00:00:43.105Z,12.00
2019-04-05T00:03:10.925Z,11.43
2019-04-05T00:05:38.922Z,11.57
2019-04-05T00:08:08.476Z,11.73
2019-04-05T00:10:36.076Z,12.13
2019-04-05T00:13:03.671Z,11.33
2019-04-05T00:15:31.331Z,12.40
2019-04-05T00:17:59.081Z,12.33
2019-04-05T00:20:26.691Z,11.60
2019-04-05T00:22:54.354Z,11.90
2019-04-05T00:25:21.990Z,12.87
2019-04-05T00:27:49.565Z,11.63
2019-04-05T00:30:17.355Z,11.80
2019-04-05T00:32:44.971Z,12.80
2019-04-05T00:35:13.722Z,13.07
2019-04-05T00:37:41.323Z,11.73
2019-04-05T00:42:50.827Z,11.77
2019-04-05T00:45:28.149Z,11.17
2019-04-05T00:47:48.282Z,11.30
2019-04-05T00:50:16.089Z,11.53
2019-04-05T00:52:43.729Z,11.60
2019-04-05T00:55:11.372Z,12.83
2019-04-05T00:57:39.031Z,13.17
2019-04-05T01:00:06.903Z,13.77
2019-04-05T01:02:34.638Z,13.23
2019-04-05T01:05:03.438Z,13.70
2019-04-05T01:07:31.091Z,13.37
2019-04-05T01:09:58.779Z,13.37
2019-04-05T01:12:27.179Z,14.43
2019-04-05T01:14:55.223Z,13.87
2019-04-05T01:17:25.370Z,14.00
2019-04-05T01:19:56.026Z,14.30
2019-04-05T01:22:26.678Z,14.27
2019-04-05T01:24:54.373Z,13.83
2019-04-05T01:27:24.489Z,14.87
2019-04-05T01:29:52.265Z,14.13
2019-04-05T01:32:19.889Z,14.43
2019-04-05T01:34:47.570Z,14.17
2019-04-05T01:37:15.206Z,14.67
2019-04-05T01:39:42.838Z,14.37
2019-04-05T01:42:10.575Z,13.73
2019-04-05T01:44:39.518Z,14.33
2019-04-05T01:47:07.224Z,13.50
2019-04-05T01:49:34.861Z,14.43
2019-04-05T01:52:02.785Z,14.17
2019-04-05T01:54:32.292Z,13.90
2019-04-05T01:56:59.954Z,12.90
2019-04-05T01:59:27.621Z,14.60
2019-04-05T02:01:55.314Z,14.47
2019-04-05T02:04:23.124Z,14.80
2019-04-05T02:06:52.983Z,14.10
2019-04-05T02:09:20.516Z,14.40
2019-04-05T02:11:49.286Z,14.77
2019-04-05T02:14:16.900Z,15.47
2019-04-05T02:16:44.519Z,15.53
2019-04-05T02:19:12.194Z,15.13
2019-04-05T02:21:40.878Z,15.23
2019-04-05T02:24:08.671Z,15.77
2019-04-05T02:26:36.301Z,15.40
2019-04-05T02:29:04.058Z,14.90
2019-04-05T02:31:31.721Z,16.77
2019-04-05T02:33:59.329Z,15.20
2019-04-05T02:36:27.208Z,15.93
2019-04-05T02:38:55.073Z,15.67
2019-04-05T02:41:25.261Z,16.57
2019-04-05T02:43:55.286Z,15.73
2019-04-05T02:46:25.533Z,16.17
2019-04-05T02:48:53.498Z,17.00
2019-04-05T02:51:24.707Z,19.20
2019-04-05T02:53:54.264Z,18.07
2019-04-05T02:56:22.189Z,20.37
2019-04-05T02:58:50.633Z,19.67
2019-04-05T03:01:18.451Z,19.70
2019-04-05T03:03:46.251Z,19.20
2019-04-05T03:06:14.783Z,19.93
2019-04-05T03:08:42.868Z,20.07
2019-04-05T03:11:13.983Z,20.03
2019-04-05T03:13:50.919Z,20.67
2019-04-05T03:16:38.594Z,21.53
2019-04-05T03:19:12.594Z,21.80
2019-04-05T03:21:44.602Z,21.77
2019-04-05T03:24:17.444Z,21.57
2019-04-05T03:26:49.980Z,21.60
2019-04-05T03:29:17.945Z,22.80
2019-04-05T03:31:46.077Z,21.47
2019-04-05T03:34:13.952Z,21.50
2019-04-05T03:36:41.569Z,22.13
2019-04-05T03:39:09.313Z,22.23
2019-04-05T03:41:37.559Z,22.37
2019-04-05T03:44:05.647Z,22.47
2019-04-05T03:46:33.734Z,21.97
2019-04-05T03:49:03.561Z,21.93
2019-04-05T03:51:31.647Z,21.50
2019-04-05T03:53:59.304Z,21.10
2019-04-05T03:56:27.417Z,21.57
2019-04-05T03:58:55.387Z,22.03
2019-04-05T04:01:25.796Z,21.20
2019-04-05T04:03:53.689Z,21.13
2019-04-05T04:06:21.688Z,21.70
2019-04-05T04:08:49.570Z,21.17
2019-04-05T04:11:17.510Z,22.63
2019-04-05T04:13:45.547Z,21.33
2019-04-05T04:16:13.712Z,20.73
2019-04-05T04:18:41.461Z,22.87
2019-04-05T04:21:27.166Z,23.03
2019-04-05T04:23:54.803Z,22.87
2019-04-05T04:26:22.472Z,21.73
2019-04-05T04:28:50.168Z,22.50
2019-04-05T04:31:18.127Z,23.00
2019-04-05T04:33:46.709Z,23.20
2019-04-05T04:36:16.227Z,22.43
2019-04-05T04:38:56.544Z,24.77
2019-04-05T04:41:24.651Z,23.63
2019-04-05T04:43:53.371Z,22.77
2019-04-05T04:46:21.002Z,24.67
2019-04-05T04:48:48.876Z,23.90
2019-04-05T04:51:17.510Z,24.30
2019-04-05T04:53:45.695Z,23.50
2019-04-05T04:56:13.326Z,23.97
2019-04-05T04:58:41.066Z,25.03
2019-04-05T05:01:09.240Z,23.90
2019-04-05T05:03:37.280Z,22.47
2019-04-05T05:06:06.890Z,22.07
2019-04-05T05:08:34.668Z,23.73
2019-04-05T05:11:13.881Z,23.50
2019-04-05T05:13:34.818Z,23.53
2019-04-05T05:16:02.677Z,24.47
2019-04-05T05:18:30.610Z,23.53
2019-04-05T05:21:01.817Z,24.50
2019-04-05T05:23:29.644Z,24.50
2019-04-05T05:25:57.610Z,24.53
2019-04-05T05:28:26.788Z,23.57
2019-04-05T05:30:57.649Z,24.10
2019-04-05T05:33:25.522Z,25.13
2019-04-05T05:35:53.176Z,24.03
2019-04-05T05:38:21.542Z,24.30
2019-04-05T05:40:49.218Z,24.23
2019-04-05T05:43:18.837Z,24.80
2019-04-05T05:45:46.344Z,23.40
2019-04-05T05:48:14.430Z,25.77
2019-04-05T05:50:42.928Z,25.00
2019-04-05T05:53:10.819Z,24.13
2019-04-05T05:55:38.523Z,24.83
2019-04-05T05:58:06.160Z,26.10
2019-04-05T06:00:33.927Z,27.10
2019-04-05T06:03:01.606Z,27.10
2019-04-05T06:05:29.228Z,25.80
2019-04-05T06:08:00.975Z,25.70
2019-04-05T06:10:28.671Z,27.77
2019-04-05T06:15:37.607Z,27.03
2019-04-05T06:18:05.478Z,26.30
2019-04-05T06:20:33.215Z,24.87
2019-04-05T06:23:00.905Z,26.47
2019-04-05T06:25:28.566Z,26.03
2019-04-05T06:27:59.680Z,27.13
2019-04-05T06:30:28.624Z,26.47
2019-04-05T06:32:55.251Z,25.60
2019-04-05T06:35:22.921Z,24.37
2019-04-05T06:37:50.527Z,23.73
2019-04-05T06:40:18.136Z,25.47
2019-04-05T06:42:45.795Z,26.33
2019-04-05T06:45:13.401Z,25.47
2019-04-05T06:47:41.450Z,25.33
2019-04-05T06:50:13.674Z,23.50
2019-04-05T06:52:41.398Z,24.20
2019-04-05T06:55:28.520Z,24.67
2019-04-05T06:57:56.216Z,24.53
2019-04-05T07:00:30.196Z,24.13
2019-04-05T07:02:58.483Z,23.23
2019-04-05T07:05:26.496Z,21.53
2019-04-05T07:07:54.335Z,21.33
2019-04-05T07:10:22.253Z,22.20
2019-04-05T07:12:50.271Z,19.30
2019-04-05T07:15:18.386Z,19.37
2019-04-05T07:17:46.425Z,19.67
2019-04-05T07:20:14.373Z,17.60
2019-04-05T07:22:42.135Z,15.73
2019-04-05T07:25:09.659Z,14.50
2019-04-05T07:27:37.795Z,14.00
2019-04-05T07:30:06.628Z,14.37
2019-04-05T07:32:36.881Z,11.20
2019-04-05T07:35:04.606Z,10.70
2019-04-05T07:37:32.269Z,11.77
2019-04-05T07:39:59.955Z,11.93
2019-04-05T07:42:27.572Z,12.13
2019-04-05T07:44:55.177Z,13.00
2019-04-05T07:47:22.887Z,13.13
2019-04-05T07:49:50.595Z,13.60
2019-04-05T07:52:18.231Z,14.30
2019-04-05T07:54:45.887Z,12.27
2019-04-05T07:57:13.628Z,13.00
2019-04-05T07:59:41.550Z,13.77
2019-04-05T08:02:09.390Z,14.33
2019-04-05T08:04:37.099Z,13.93
2019-04-05T08:07:04.839Z,15.07
2019-04-05T08:09:35.327Z,14.50
2019-04-05T08:12:03.614Z,14.57
2019-04-05T08:14:31.239Z,15.30
2019-04-05T08:16:58.921Z,14.47
2019-04-05T08:19:26.615Z,15.60
2019-04-05T08:21:54.289Z,16.83
2019-04-05T08:24:22.328Z,16.73
2019-04-05T08:26:50.242Z,16.13
2019-04-05T08:29:17.863Z,16.17
2019-04-05T08:31:45.525Z,16.43
2019-04-05T08:34:13.110Z,17.90
2019-04-05T08:36:40.869Z,16.60
2019-04-05T08:39:08.621Z,16.50
2019-04-05T08:41:36.241Z,16.00
2019-04-05T08:44:04.514Z,14.47
2019-04-05T08:46:32.237Z,16.10
2019-04-05T08:49:10.105Z,15.50
2019-04-05T08:51:29.383Z,16.77
2019-04-05T08:53:56.933Z,15.93
2019-04-05T08:56:24.637Z,16.30
2019-04-05T08:58:52.325Z,16.47
2019-04-05T09:01:20.162Z,16.67
2019-04-05T09:03:47.866Z,17.73
2019-04-05T09:06:15.514Z,16.17
2019-04-05T09:08:43.124Z,16.93
2019-04-05T09:11:10.799Z,16.93
2019-04-05T09:13:38.432Z,16.80
2019-04-05T09:16:06.117Z,16.23
2019-04-05T09:18:37.373Z,17.10
2019-04-05T09:21:05.084Z,17.13
2019-04-05T09:23:32.742Z,16.97
2019-04-05T09:26:00.384Z,17.00
2019-04-05T09:28:28.086Z,18.43
2019-04-05T09:30:55.726Z,17.37
2019-04-05T09:33:23.527Z,15.03
2019-04-05T09:35:51.276Z,14.77
2019-04-05T09:38:18.936Z,14.50
2019-04-05T09:40:46.603Z,14.87
2019-04-05T09:43:14.272Z,15.77
2019-04-05T09:45:41.922Z,13.83
2019-04-05T09:48:09.672Z,13.77
2019-04-05T09:50:37.382Z,13.70
2019-04-05T09:53:05.102Z,14.87
2019-04-05T09:55:32.851Z,14.20
2019-04-05T09:58:00.638Z,14.73
2019-04-05T10:00:28.316Z,14.80
2019-04-05T10:02:55.984Z,15.47
2019-04-05T10:05:23.713Z,15.30
2019-04-05T10:07:55.371Z,16.47
2019-04-05T10:10:20.931Z,15.70
2019-04-05T10:12:48.682Z,15.00
2019-04-05T10:15:16.528Z,15.30
2019-04-05T10:17:44.185Z,14.80
2019-04-05T10:20:12.159Z,14.20
2019-04-05T10:22:41.663Z,12.70
2019-04-05T10:25:09.514Z,13.07
2019-04-05T10:27:37.231Z,13.20
2019-04-05T10:30:07.762Z,11.87
2019-04-05T10:32:35.531Z,12.40
2019-04-05T10:35:03.303Z,11.93
2019-04-05T10:37:31.046Z,12.80
2019-04-05T10:39:58.698Z,12.17
2019-04-05T10:42:45.847Z,14.27
2019-04-05T10:45:13.900Z,13.33
2019-04-05T10:47:41.593Z,12.97
2019-04-05T10:50:10.524Z,12.17
2019-04-05T10:52:38.236Z,12.27
2019-04-05T10:55:07.786Z,16.03
2019-04-05T10:57:35.657Z,12.53
2019-04-05T11:00:05.068Z,14.17
2019-04-05T11:02:32.774Z,13.40
2019-04-05T11:05:06.212Z,14.50
2019-04-05T11:07:35.135Z,13.43
2019-04-05T11:10:04.751Z,13.43
2019-04-05T11:12:32.443Z,11.13
2019-04-05T11:15:00.194Z,11.10
2019-04-05T11:17:27.858Z,11.67
2019-04-05T11:19:55.578Z,11.10
2019-04-05T11:22:24.936Z,11.17
2019-04-05T11:24:52.610Z,9.77
2019-04-05T11:27:20.240Z,9.27
2019-04-05T11:29:47.913Z,9.57
2019-04-05T11:32:15.588Z,9.70
2019-04-05T11:34:43.278Z,9.30
2019-04-05T11:37:10.901Z,9.43
2019-04-05T11:39:38.571Z,9.50
2019-04-05T11:42:06.195Z,9.83
2019-04-05T11:44:34.325Z,9.57
2019-04-05T11:47:03.698Z,9.73
2019-04-05T11:49:33.826Z,10.17
2019-04-05T11:52:01.496Z,9.70
2019-04-05T11:54:29.215Z,9.27
2019-04-05T11:56:57.938Z,9.80
2019-04-05T11:59:25.720Z,10.47
2019-04-05T12:02:15.636Z,10.37
2019-04-05T12:04:45.237Z,12.50
2019-04-05T12:07:12.728Z,12.03
2019-04-05T12:09:40.398Z,12.33
2019-04-05T12:12:08.044Z,11.73
2019-04-05T12:14:36.733Z,13.00
2019-04-05T12:17:05.561Z,11.20
2019-04-05T12:19:33.864Z,13.43
2019-04-05T12:22:04.585Z,12.23
2019-04-05T12:24:32.713Z,13.50
2019-04-05T12:27:00.546Z,13.30
2019-04-05T12:29:28.182Z,12.50
2019-04-05T12:31:56.523Z,13.37
2019-04-05T12:34:24.157Z,13.33
2019-04-05T12:36:52.688Z,13.27
2019-04-05T12:39:20.994Z,13.97
2019-04-05T12:41:48.673Z,13.90
2019-04-05T12:44:16.313Z,14.00
2019-04-05T12:46:45.864Z,14.10
2019-04-05T12:49:15.283Z,13.37
2019-04-05T12:51:43.428Z,13.20
2019-04-05T12:54:14.549Z,12.87
2019-04-05T12:56:57.879Z,12.60
2019-04-05T12:59:25.562Z,12.00
2019-04-05T13:01:53.574Z,11.27
2019-04-05T13:04:21.867Z,11.03
2019-04-05T13:06:50.615Z,11.60
2019-04-05T13:09:19.014Z,12.23
2019-04-05T13:11:46.718Z,11.40
2019-04-05T13:14:15.483Z,11.50
2019-04-05T13:16:43.187Z,11.17
2019-04-05T13:19:10.983Z,10.97
2019-04-05T13:21:39.832Z,10.80
2019-04-05T13:24:10.033Z,11.00
2019-04-05T13:26:37.151Z,11.63
2019-04-05T13:29:05.991Z,10.70
2019-04-05T13:31:33.704Z,11.90
2019-04-05T13:34:01.355Z,12.87
2019-04-05T13:36:31.181Z,13.60
2019-04-05T13:39:00.380Z,12.80
2019-04-05T13:41:31.461Z,13.70
2019-04-05T13:44:01.340Z,13.27
2019-04-05T13:46:27.201Z,12.77
2019-04-05T13:48:54.952Z,12.87
2019-04-05T13:51:28.020Z,13.70
2019-04-05T13:53:55.638Z,12.70
2019-04-05T13:56:27.000Z,14.33
2019-04-05T13:58:56.506Z,13.90
2019-04-05T14:01:24.202Z,14.70
2019-04-05T14:03:51.892Z,15.40
2019-04-05T14:06:19.531Z,14.87
2019-04-05T14:08:47.179Z,15.43
2019-04-05T14:11:14.861Z,15.70
2019-04-05T14:13:43.037Z,16.37
2019-04-05T14:16:13.007Z,16.03
2019-04-05T14:18:40.260Z,17.10
2019-04-05T14:21:07.898Z,18.03
2019-04-05T14:23:35.629Z,17.57
2019-04-05T14:26:03.843Z,17.57
2019-04-05T14:28:32.375Z,17.73
2019-04-05T14:31:02.434Z,17.53
2019-04-05T14:33:30.455Z,17.87
2019-04-05T14:35:58.075Z,17.53
2019-04-05T14:38:26.287Z,18.53
2019-04-05T14:40:53.959Z,19.77
2019-04-05T14:43:21.622Z,20.30
2019-04-05T14:45:49.284Z,19.83
2019-04-05T14:48:16.956Z,18.40
2019-04-05T14:50:44.636Z,18.90
2019-04-05T14:53:12.371Z,18.90
2019-04-05T14:55:40.030Z,18.07
2019-04-05T14:58:10.385Z,19.87
2019-04-05T15:00:39.580Z,18.70
2019-04-05T15:03:07.227Z,17.10
2019-04-05T15:05:34.952Z,17.50
2019-04-05T15:08:02.619Z,17.80
2019-04-05T15:10:30.342Z,18.30
2019-04-05T15:13:00.084Z,18.47
2019-04-05T15:15:27.663Z,17.67
2019-04-05T15:17:55.312Z,19.73
2019-04-05T15:20:23.812Z,20.13
2019-04-05T15:22:51.469Z,21.57
2019-04-05T15:25:31.659Z,18.83
2019-04-05T15:27:59.463Z,17.10
2019-04-05T15:30:27.154Z,17.13
2019-04-05T15:32:57.595Z,15.77
2019-04-05T15:35:28.258Z,15.67
2019-04-05T15:37:56.089Z,17.07
2019-04-05T15:40:23.810Z,17.03
2019-04-05T15:42:52.506Z,17.50
2019-04-05T15:45:20.140Z,16.60
2019-04-05T15:47:47.862Z,17.13
2019-04-05T15:50:15.719Z,19.80
2019-04-05T15:52:43.354Z,19.43
2019-04-05T15:55:11.221Z,21.27
2019-04-05T15:57:39.531Z,21.33
2019-04-05T16:00:11.456Z,21.30
2019-04-05T16:02:39.163Z,23.40
2019-04-05T16:05:07.422Z,22.60
2019-04-05T16:07:35.127Z,22.73
2019-04-05T16:10:03.693Z,24.00
2019-04-05T16:12:31.390Z,23.93
2019-04-05T16:14:59.066Z,23.03
2019-04-05T16:17:26.753Z,21.93
2019-04-05T16:19:56.371Z,22.90
2019-04-05T16:22:31.341Z,21.27
2019-04-05T16:24:53.378Z,20.80
2019-04-05T16:27:21.052Z,20.47
2019-04-05T16:29:48.680Z,19.93
2019-04-05T16:32:16.401Z,20.57
2019-04-05T16:34:44.095Z,20.43
2019-04-05T16:37:13.708Z,19.97
2019-04-05T16:39:41.341Z,20.20
2019-04-05T16:42:10.337Z,19.97
2019-04-05T16:44:38.178Z,18.73
2019-04-05T16:47:05.874Z,18.97
2019-04-05T16:49:33.523Z,20.93
2019-04-05T16:52:01.207Z,18.23
2019-04-05T16:54:28.913Z,16.03
2019-04-05T16:56:56.603Z,16.47
2019-04-05T16:59:24.283Z,15.87
2019-04-05T17:01:51.938Z,15.33
2019-04-05T17:04:25.772Z,14.00
2019-04-05T17:06:53.462Z,13.07
2019-04-05T17:09:21.130Z,13.77
2019-04-05T17:11:48.769Z,14.33
2019-04-05T17:14:16.453Z,14.17
2019-04-05T17:16:44.166Z,13.10
2019-04-05T17:19:11.845Z,13.30
2019-04-05T17:21:39.579Z,14.90
2019-04-05T17:24:07.253Z,13.63
2019-04-05T17:26:34.972Z,14.67
2019-04-05T17:29:02.644Z,14.57
2019-04-05T17:31:30.293Z,14.53
2019-04-05T17:33:57.955Z,14.47
2019-04-05T17:36:25.585Z,13.07
2019-04-05T17:38:53.246Z,14.30
2019-04-05T17:41:20.912Z,14.40
2019-04-05T17:43:48.553Z,15.03
2019-04-05T17:46:16.177Z,13.87
2019-04-05T17:48:43.837Z,13.77
2019-04-05T17:51:11.585Z,13.77
2019-04-05T17:53:39.654Z,14.13
2019-04-05T17:56:07.305Z,13.23
2019-04-05T17:58:35.669Z,14.93
2019-04-05T18:01:03.303Z,15.90
2019-04-05T18:03:30.974Z,15.67
2019-04-05T18:05:58.621Z,16.53
2019-04-05T18:08:26.333Z,16.53
2019-04-05T18:10:55.143Z,16.30
2019-04-05T18:13:22.884Z,15.97
2019-04-05T18:15:52.750Z,15.70
2019-04-05T18:18:20.361Z,18.03
2019-04-05T18:20:48.014Z,17.47
2019-04-05T18:23:25.046Z,19.13
2019-04-05T18:25:45.129Z,19.10
2019-04-05T18:28:12.756Z,20.63
2019-04-05T18:30:40.498Z,19.83
2019-04-05T18:33:10.535Z,19.70
2019-04-05T18:35:38.262Z,21.30
2019-04-05T18:38:05.961Z,22.00
2019-04-05T18:40:39.877Z,21.13
2019-04-05T18:43:03.139Z,20.53
2019-04-05T18:45:33.823Z,21.90
2019-04-05T18:48:01.471Z,23.63
2019-04-05T18:50:29.164Z,22.93
2019-04-05T18:52:56.821Z,23.97
2019-04-05T18:55:25.416Z,25.17
2019-04-05T18:57:53.082Z,24.83
2019-04-05T19:00:20.786Z,25.03
2019-04-05T19:02:48.453Z,27.53
2019-04-05T19:05:16.127Z,25.67
2019-04-05T19:07:43.793Z,25.83
2019-04-05T19:10:11.676Z,25.23
2019-04-05T19:12:39.451Z,25.97
2019-04-05T19:15:08.138Z,26.03
2019-04-05T19:17:35.841Z,25.47
2019-04-05T19:20:05.152Z,26.03
2019-04-05T19:22:33.159Z,24.30
2019-04-05T19:25:00.826Z,25.37
2019-04-05T19:27:28.997Z,23.57
2019-04-05T19:29:56.736Z,24.27
2019-04-05T19:49:52.171Z,24.13
2019-04-05T19:52:19.871Z,23.20
2019-04-05T19:54:47.491Z,24.10
2019-04-05T19:57:15.164Z,23.57
2019-04-05T19:59:44.489Z,25.07
2019-04-05T20:02:14.137Z,23.73
2019-04-05T20:04:41.762Z,23.40
2019-04-05T20:07:09.661Z,23.47
2019-04-05T20:09:37.302Z,23.63
2019-04-05T20:12:05.099Z,24.30
2019-04-05T20:14:32.730Z,24.47
2019-04-05T20:17:00.443Z,24.30
2019-04-05T20:19:28.086Z,24.03
2019-04-05T20:21:55.834Z,24.03
2019-04-05T20:24:23.470Z,23.57
2019-04-05T20:26:51.164Z,23.67
2019-04-05T20:29:18.847Z,23.17
2019-04-05T20:31:46.670Z,24.30
2019-04-05T20:34:14.317Z,23.57
2019-04-05T20:36:41.967Z,24.87
2019-04-05T20:39:09.644Z,24.60
2019-04-05T20:41:37.317Z,24.47
2019-04-05T20:44:05.010Z,23.37
2019-04-05T20:46:32.613Z,24.47
2019-04-05T20:49:00.312Z,25.97
2019-04-05T20:51:27.944Z,24.20
2019-04-05T20:53:56.334Z,26.00
2019-04-05T20:56:24.031Z,24.47
2019-04-05T20:58:51.721Z,25.13
2019-04-05T21:01:19.355Z,24.30
2019-04-05T21:03:47.114Z,24.73
2019-04-05T21:06:17.091Z,26.17
2019-04-05T21:08:44.350Z,25.87
2019-04-05T21:11:12.009Z,26.23
2019-04-05T21:13:39.691Z,25.83
2019-04-05T21:16:08.497Z,25.13
2019-04-05T21:18:36.217Z,27.00
2019-04-05T21:21:03.918Z,25.50
2019-04-05T21:23:33.482Z,25.10
2019-04-05T21:26:02.977Z,25.90
2019-04-05T21:28:30.621Z,26.93
2019-04-05T21:30:58.326Z,26.57
2019-04-05T21:33:25.964Z,27.63
2019-04-05T21:35:53.614Z,26.43
2019-04-05T21:38:23.066Z,26.83
2019-04-05T21:40:50.714Z,26.53
2019-04-05T21:43:19.508Z,26.30
2019-04-05T21:45:47.170Z,26.27
2019-04-05T21:48:14.996Z,27.83
2019-04-05T21:50:43.064Z,27.37
2019-04-05T21:53:10.702Z,27.57
2019-04-05T21:55:38.356Z,28.33
2019-04-05T21:58:06.019Z,27.30
2019-04-05T22:00:43.714Z,27.10
2019-04-05T22:03:11.362Z,28.50
2019-04-05T22:05:39.041Z,27.83
2019-04-05T22:08:07.833Z,27.47
2019-04-05T22:13:19.499Z,28.57
2019-04-05T22:15:47.182Z,28.57
2019-04-05T22:18:14.916Z,27.40
2019-04-05T22:20:42.603Z,27.13
2019-04-05T22:23:10.276Z,27.13
2019-04-05T22:25:37.945Z,27.53
2019-04-05T22:28:07.468Z,27.43
2019-04-05T22:30:35.083Z,26.93
2019-04-05T22:33:02.733Z,27.83
2019-04-05T22:35:32.337Z,28.53
2019-04-05T22:37:59.878Z,27.17
2019-04-05T22:40:27.571Z,27.30
2019-04-05T22:42:55.232Z,26.97
2019-04-05T22:45:24.187Z,28.07
2019-04-05T22:47:51.795Z,27.97
2019-04-05T22:50:19.451Z,27.93
2019-04-05T22:52:47.773Z,28.03
2019-04-05T22:55:16.057Z,27.10
2019-04-05T22:57:44.230Z,28.20
2019-04-05T23:00:12.233Z,26.50
2019-04-05T23:02:39.884Z,27.93
2019-04-05T23:05:07.757Z,26.57
2019-04-05T23:07:35.524Z,27.53
2019-04-05T23:10:04.376Z,28.67
2019-04-05T23:12:39.381Z,28.80
2019-04-05T23:15:07.557Z,27.63
2019-04-05T23:17:37.114Z,27.83
2019-04-05T23:20:05.423Z,27.33
2019-04-05T23:22:33.090Z,28.30
2019-04-05T23:25:00.710Z,30.27
2019-04-05T23:27:28.371Z,27.53
2019-04-05T23:29:55.997Z,29.90
2019-04-05T23:32:23.731Z,29.37
2019-04-05T23:34:51.431Z,30.23
2019-04-05T23:37:19.078Z,28.70
2019-04-05T23:39:46.690Z,29.73
2019-04-05T23:42:14.447Z,31.03
2019-04-05T23:44:42.103Z,30.10
2019-04-05T23:47:09.788Z,30.27
2019-04-05T23:49:37.413Z,29.73
2019-04-05T23:52:05.059Z,29.40
2019-04-05T23:54:32.688Z,30.63
2019-04-05T23:57:00.364Z,31.30
2019-04-05T23:59:27.993Z,31.33
